Terminal Aerodrome Forecast
Issued by NWS

Home | Current Version | Previous Version | Text Only | Print | Product List | Glossary On
Versions: 1 2 3 4 5 6 7 8 9 10 11 12 13
000
FTUS45 KTFX 260500
TAFCTB
TAF
KCTB 260520Z 2606/2706 22011KT P6SM SCT090 BKN150
      TEMPO 2606/2610 23018G28KT
     FM261000 24025G35KT P6SM SCT080 BKN130
     FM261700 26032G45KT P6SM SCT070 BKN120
     FM270000 28020G30KT P6SM VCSH SCT030 OVC050=

USA.gov is the U.S. government's official web portal to all federal, state and local government web resources and services.